Seattle, WA

6:09 PM PDT on September 01, 2015 (GMT -0700)
University District | | Change Station
CLOSE
Current Station
Personal Weather Station
Location: Seattle, WA
Elevation: 26 ft
Nearby Weather Stations

Elev 26 ft 47.65 °N, 122.30 °W | Updated 4 minutes ago

Overcast
Overcast
61.7 °F
Feels Like 61.7 °F
N
14.0
Wind Variable Wind from South
Gusts 14.0 mph

Today
High -- | Low -- °F
--% Chance of Precip.
Yesterday
High -- | Low -- °F
Precip. -- in
6:27 AM 7:49 PM
Waning Gibbous, 85% visible
Pressure 29.79 in
Visibility 6.0 miles
Clouds Few 1100 ft
Mostly Cloudy 4600 ft
Overcast 5500 ft
Dew Point 58 °F
Humidity 87%
Rainfall 0.00 in
Snow Depth Not available.
UV 0 out of 12
Pollen .40 out of 12
Air Quality Not available.
Flu Activity Not available.
METAR KBFI 020053Z 17006KT 6SM -RA FEW011 BKN046 OVC055 17/14 A2979 RMK AO2 RAB32 SLP088 P0001 T01720139
Pressure 29.79 in
Visibility 6.0 miles
Clouds Few 1100 ft
Mostly Cloudy 4600 ft
Overcast 5500 ft
Dew Point 58 °F
Humidity 87%
Rainfall 0.00 in
Snow Depth Not available.
UV 0 out of 12
Pollen .40 out of 12
Air Quality Not available.
Flu Activity Not available.
METAR KBFI 020053Z 17006KT 6SM -RA FEW011 BKN046 OVC055 17/14 A2979 RMK AO2 RAB32 SLP088 P0001 T01720139

10-Day Weather Forecast

×

Almanac

Astronomy

Sep. 01, 2015 Rise Set
Actual Time
Civil Twilight
Nautical Twilight
Astronomical Twilight
Moon
Length of Visible Light
Length of Day
Tomorrow will be .
, % of the Moon is Illuminated

Today's Extremes

State Highs State Lows

Community

WunderPhotos

Upload Photos

1,851,663 photos uploaded!

WunderBlogs® & News

Nearby

Air Quality

  Air Quality AQ Index Pollutant
Not available.

Snow Depth

Station Depth Elevation

Earthquake Activity

City Distance Mag. Time & Date
Minimum magnitude displayed is 2.5.

Coastal Water Temperatures

Place Temperature

Stations

Nearby Weather Stations

Station Location Temp. Windchill Dew Point Humidity Wind Precip. Elev Updated Type